International Virtual Aviation Organisation

Russian Federation and Kazakhstan MCD

 

Карточка аэропорта UAKK

Внимание!
Информация на этой странице в стадии наполнения.
Если вы не увидели какой-то информации, или заметили неточность - пожалуйста сообщите нам!
Спасибо!
Команда RU-STAFF
Название аэропортаКараганда
Название аэропорта (англ.)Karaganda
Превышение1768 ft. (538.9 m.)
Координаты49°40.302', 73°20.118'
Высота перехода5380
Эшелон переходаFL70
Коды ответчика0630-0637, 7220-7227
Зона ОрВДАстана РПИ (UACC)
Данные METARUAKK 180730Z 15005MPS 070V190 CAVOK M03/M08 Q1019 R23/3///45 NOSIG RMK QFE717/0957
Проноз погоды (TAF)UAKK 180500Z 1806/1906 18010MPS 9999 DRSN NSC TXM02/1809Z TNM09/1823Z TEMPO 1806/1812 18015MPS 3000 BLSN TEMPO 1812/1818 15009MPS TEMPO 1818/1902 17006MPS BECMG 1902/1904 18010MPS SCT010 BKN100
NOTAMshow/hide NOTAM
AWOS   TABLE

Информация о ВПП

ВПП Длина ВПП (м.) Покрытие Курс ВПП Частота ILS
053601Железобетон50109.9
233601Железобетон230111.7

Диспетчерские позиции




Спутниковое изображение